RZR weather

Cleveland Regional Jetport
Cleveland, Tennessee, United States

Public forecast

Using degrees Fahrenheit for public forecast. Weather courtesy of forecast.io.

Current aviation weather report (METAR) for Cleveland Regional Jetport

Retrieved 2020/06/01 02:15 UTC (23 minutes ago):

KRZR 010215Z AUTO 03005KT 10SM CLR 18/14 A3016 RMK A01

Closest aviation forecast (TAF) to Cleveland Regional Jetport

Closest forecast is Lovell Field, 22.5 nm (41.6 km) WSW. Retrieved 2020-06-01 00:22 UTC (2 hours ago):

TAF KCHA 312320Z 0100/0124 02009KT P6SM SKC FM011100 01004KT P6SM FEW050 FM011400 04006KT P6SM SCT035 FM011800 VRB05KT P6SM FEW045